NCAR-RAP Real-Time Weather Data

Output produced by METARs form (14 October 2019  22:36 UTC)
found at http://weather.rap.ucar.edu/surface/
 
KLAX 142153Z 25011KT 10SM FEW015 21/13 A2991 RMK AO2 SLP127 T02110133
KLAX 142053Z 25012KT 10SM FEW035 22/13 A2992 RMK AO2 SLP130 T02220133 58014
KLAX 141953Z 24009KT 9SM SCT032 22/13 A2993 RMK AO2 SLP136 T02220133
KLAX 141853Z 24005KT 9SM SCT030 22/13 A2995 RMK AO2 SLP140 T02170128
KLAX 141753Z 27006KT 9SM BKN030 22/13 A2996 RMK AO2 SLP145 T02170128 10217 20172 50008
KLAX 141653Z VRB04KT 9SM SCT017 BKN026 21/12 A2997 RMK AO2 SLP146 T02060122
KLAX 141553Z 06004KT 8SM FEW016 BKN027 19/13 A2996 RMK AO2 SLP144 T01940128
KLAX 141453Z 09004KT 7SM FEW016 BKN025 18/13 A2994 RMK AO2 SLP137 T01830128 53012
KLAX 141353Z 09004KT 10SM FEW016 BKN025 17/13 A2992 RMK AO2 SLP131 BKN V SCT T01720128
KLAX 141339Z 05005KT 10SM FEW016 SCT025 18/13 A2992 RMK AO2 SCT V BKN T01780128
KLAX 141253Z 04004KT 10SM FEW016 BKN022 18/12 A2991 RMK AO2 SLP127 T01830122
KLAX 141153Z 03005KT 10SM FEW016 BKN022 18/13 A2990 RMK AO2 SLP124 T01830128 10183 20167 55000
KLAX 141053Z 00000KT 10SM FEW015 OVC022 18/13 A2990 RMK AO2 SLP123 T01780133
KLAX 140953Z 32003KT 10SM FEW015 BKN020 18/14 A2991 RMK AO2 SLP125 T01780139
KLAX 140945Z 32003KT 10SM FEW015 BKN020 18/14 A2991 RMK AO2 T01780139
KLAX 140853Z 02005KT 10SM FEW011 SCT022 18/14 A2991 RMK AO2 SLP124 T01780139 53004
KLAX 140753Z 07004KT 10SM FEW011 FEW015 SCT150 18/14 A2990 RMK AO2 SLP123 T01780139 402280144
KLAX 140653Z 00000KT 10SM FEW011 FEW016 SCT150 18/14 A2990 RMK AO2 SLP122 T01780139
KLAX 140553Z 25005KT 10SM FEW011 FEW016 SCT150 18/14 A2989 RMK AO2 SLP121 T01830139 10206 20178 51011
KLAX 140453Z 24004KT 10SM FEW011 FEW016 18/14 A2988 RMK AO2 SLP117 T01780139
KLAX 140353Z 25005KT 10SM FEW013 18/14 A2988 RMK AO2 SLP115 T01830139
KLAX 140253Z 26006KT 10SM FEW013 18/14 A2986 RMK AO2 SLP110 T01830139 53007
KLAX 140153Z 24009KT 10SM FEW010 19/14 A2985 RMK AO2 SLP108 T01890139
KLAX 140053Z 26010KT 10SM FEW010 19/13 A2984 RMK AO2 SLP103 T01940133
KLAX 132353Z 23009KT 10SM CLR 21/14 A2984 RMK AO2 SLP102 T02060144 10228 20206 56004
KLAX 132253Z 26011KT 10SM FEW011 21/14 A2984 RMK AO2 SLP102 T02110144
KLAX 132153Z 25009KT 10SM FEW011 22/14 A2984 RMK AO2 SLP102 T02220144
KLAX 132053Z 25011KT 10SM FEW011 22/14 A2985 RMK AO2 SLP106 T02220139 58013
KLAX 131953Z 25011KT 10SM FEW011 22/14 A2986 RMK AO2 SLP112 T02220144
KLAX 131853Z 24010KT 10SM FEW010 22/14 A2988 RMK AO2 SLP116 T02220144
KLAX 131753Z 20004KT 10SM FEW010 22/11 A2989 RMK AO2 SLP119 T02170111 10222 20144 51010
KLAX 131653Z 16004KT 10SM FEW010 FEW280 20/13 A2989 RMK AO2 SLP119 T02000128
KLAX 131553Z 12004KT 10SM FEW010 FEW090 SCT280 18/11 A2988 RMK AO2 SLP116 T01830111
KLAX 131453Z 06004KT 10SM FEW010 FEW090 SCT280 17/11 A2986 RMK AO2 SLP109 T01670111 53010
KLAX 131353Z 00000KT 10SM CLR 15/12 A2984 RMK AO2 SLP103 T01500122
KLAX 131253Z 00000KT 10SM CLR 16/12 A2983 RMK AO2 SLP099 T01560117
KLAX 131153Z 00000KT 10SM CLR 16/12 A2983 RMK AO2 SLP099 T01560117 10189 20156 58008
KLAX 131053Z 00000KT 10SM CLR 16/12 A2984 RMK AO2 SLP103 T01610117
KLAX 130953Z 00000KT 10SM CLR 17/13 A2985 RMK AO2 SLP105 T01720128
KLAX 130853Z 00000KT 10SM CLR 17/13 A2986 RMK AO2 SLP106 T01720128 55002
KLAX 130753Z 00000KT 10SM CLR 18/13 A2985 RMK AO2 SLP105 T01780133 402610156
KLAX 130653Z 00000KT 10SM CLR 18/13 A2986 RMK AO2 SLP107 T01830133
KLAX 130553Z 00000KT 10SM CLR 19/13 A2986 RMK AO2 SLP108 T01890133 10228 20189 51005
KLAX 130453Z 21003KT 10SM CLR 19/14 A2985 RMK AO2 SLP106 T01890139
KLAX 130353Z 25005KT 10SM CLR 19/14 A2985 RMK AO2 SLP106 T01890139
KLAX 130253Z 24006KT 10SM CLR 19/13 A2985 RMK AO2 SLP105 T01940133 53005
KLAX 130153Z 24007KT 10SM CLR 20/12 A2983 RMK AO2 SLP099 T02000122
KLAX 130053Z 25008KT 10SM CLR 21/12 A2982 RMK AO2 SLP098 T02110117
KLAX 122353Z 25011KT 10SM CLR 23/12 A2983 RMK AO2 SLP100 T02280117 10256 20222 58007
KLAX 122253Z 26011KT 10SM CLR 23/13 A2984 RMK AO2 SLP103 T02280128